sensor_id;sensor_type;location;lat;lon;timestamp;temperature;humidity
54082;DHT22;39986;50.770;0.266;2023-06-26T00:02:17;17.90;99.90
54082;DHT22;39986;50.770;0.266;2023-06-26T00:04:43;17.90;99.90
54082;DHT22;39986;50.770;0.266;2023-06-26T00:07:09;17.80;99.90
54082;DHT22;39986;50.770;0.266;2023-06-26T00:09:34;17.80;99.90
54082;DHT22;39986;50.770;0.266;2023-06-26T00:12:00;17.80;99.90
54082;DHT22;39986;50.770;0.266;2023-06-26T00:14:26;17.70;99.90
54082;DHT22;39986;50.770;0.266;2023-06-26T00:16:52;17.70;99.90
54082;DHT22;39986;50.770;0.266;2023-06-26T00:19:17;17.80;99.90
54082;DHT22;39986;50.770;0.266;2023-06-26T00:21:43;17.80;99.90
54082;DHT22;39986;50.770;0.266;2023-06-26T00:24:13;17.70;99.90
54082;DHT22;39986;50.770;0.266;2023-06-26T00:26:39;17.70;99.90
54082;DHT22;39986;50.770;0.266;2023-06-26T00:29:04;17.70;99.90
54082;DHT22;39986;50.770;0.266;2023-06-26T00:31:30;17.70;99.90
54082;DHT22;39986;50.770;0.266;2023-06-26T00:33:55;17.60;99.90
54082;DHT22;39986;50.770;0.266;2023-06-26T00:36:21;17.70;99.90
54082;DHT22;39986;50.770;0.266;2023-06-26T00:38:49;17.70;99.90
54082;DHT22;39986;50.770;0.266;2023-06-26T00:41:14;17.70;99.90
54082;DHT22;39986;50.770;0.266;2023-06-26T00:43:40;17.70;99.90
54082;DHT22;39986;50.770;0.266;2023-06-26T00:46:06;17.70;99.90
54082;DHT22;39986;50.770;0.266;2023-06-26T00:48:33;17.70;99.90
54082;DHT22;39986;50.770;0.266;2023-06-26T00:50:59;17.60;99.90
54082;DHT22;39986;50.770;0.266;2023-06-26T00:53:24;17.60;99.90
54082;DHT22;39986;50.770;0.266;2023-06-26T00:55:50;17.50;99.90
54082;DHT22;39986;50.770;0.266;2023-06-26T00:58:15;17.60;99.90
54082;DHT22;39986;50.770;0.266;2023-06-26T01:00:41;17.50;99.90
54082;DHT22;39986;50.770;0.266;2023-06-26T01:03:11;17.40;99.90
54082;DHT22;39986;50.770;0.266;2023-06-26T01:05:37;17.40;99.90
54082;DHT22;39986;50.770;0.266;2023-06-26T01:08:03;17.40;99.90
54082;DHT22;39986;50.770;0.266;2023-06-26T01:10:29;17.30;99.90
54082;DHT22;39986;50.770;0.266;2023-06-26T01:12:56;17.20;99.90
54082;DHT22;39986;50.770;0.266;2023-06-26T01:15:22;17.20;99.90
54082;DHT22;39986;50.770;0.266;2023-06-26T01:17:47;17.20;99.90
54082;DHT22;39986;50.770;0.266;2023-06-26T01:20:14;17.10;99.90
54082;DHT22;39986;50.770;0.266;2023-06-26T01:25:21;17.10;99.90
54082;DHT22;39986;50.770;0.266;2023-06-26T01:27:49;17.10;99.90
54082;DHT22;39986;50.770;0.266;2023-06-26T01:30:15;17.00;99.90
54082;DHT22;39986;50.770;0.266;2023-06-26T01:32:41;17.00;99.90
54082;DHT22;39986;50.770;0.266;2023-06-26T01:35:07;16.90;99.90
54082;DHT22;39986;50.770;0.266;2023-06-26T01:37:33;16.90;99.90
54082;DHT22;39986;50.770;0.266;2023-06-26T01:39:59;16.90;99.90
54082;DHT22;39986;50.770;0.266;2023-06-26T01:42:24;16.90;99.90
54082;DHT22;39986;50.770;0.266;2023-06-26T01:44:50;16.90;99.90
54082;DHT22;39986;50.770;0.266;2023-06-26T01:47:19;16.90;99.90
54082;DHT22;39986;50.770;0.266;2023-06-26T01:49:47;16.90;99.90
54082;DHT22;39986;50.770;0.266;2023-06-26T01:54:58;16.80;99.90
54082;DHT22;39986;50.770;0.266;2023-06-26T01:57:26;16.70;99.90
54082;DHT22;39986;50.770;0.266;2023-06-26T01:59:54;16.70;99.90
54082;DHT22;39986;50.770;0.266;2023-06-26T02:02:19;16.70;99.90
54082;DHT22;39986;50.770;0.266;2023-06-26T02:04:45;16.70;99.90
54082;DHT22;39986;50.770;0.266;2023-06-26T02:07:13;16.60;99.90
54082;DHT22;39986;50.770;0.266;2023-06-26T02:09:39;16.60;99.90
54082;DHT22;39986;50.770;0.266;2023-06-26T02:12:04;16.60;99.90
54082;DHT22;39986;50.770;0.266;2023-06-26T02:14:30;16.60;99.90
54082;DHT22;39986;50.770;0.266;2023-06-26T02:16:55;16.60;99.90
54082;DHT22;39986;50.770;0.266;2023-06-26T02:19:21;16.60;99.90
54082;DHT22;39986;50.770;0.266;2023-06-26T02:21:47;16.60;99.90
54082;DHT22;39986;50.770;0.266;2023-06-26T02:24:13;16.60;99.90
54082;DHT22;39986;50.770;0.266;2023-06-26T02:26:39;16.60;99.90
54082;DHT22;39986;50.770;0.266;2023-06-26T02:29:05;16.60;99.90
54082;DHT22;39986;50.770;0.266;2023-06-26T02:31:30;16.60;99.90
54082;DHT22;39986;50.770;0.266;2023-06-26T02:33:56;16.50;99.90
54082;DHT22;39986;50.770;0.266;2023-06-26T02:36:21;16.60;99.90
54082;DHT22;39986;50.770;0.266;2023-06-26T02:38:47;16.60;99.90
54082;DHT22;39986;50.770;0.266;2023-06-26T02:41:12;16.50;99.90
54082;DHT22;39986;50.770;0.266;2023-06-26T02:43:38;16.50;99.90
54082;DHT22;39986;50.770;0.266;2023-06-26T02:46:03;16.60;99.90
54082;DHT22;39986;50.770;0.266;2023-06-26T02:48:29;16.50;99.90
54082;DHT22;39986;50.770;0.266;2023-06-26T02:50:54;16.60;99.90
54082;DHT22;39986;50.770;0.266;2023-06-26T02:53:20;16.50;99.90
54082;DHT22;39986;50.770;0.266;2023-06-26T02:55:46;16.50;99.90
54082;DHT22;39986;50.770;0.266;2023-06-26T02:58:12;16.50;99.90
54082;DHT22;39986;50.770;0.266;2023-06-26T03:00:38;16.60;99.90
54082;DHT22;39986;50.770;0.266;2023-06-26T03:03:07;16.50;99.90
54082;DHT22;39986;50.770;0.266;2023-06-26T03:05:32;16.50;99.90
54082;DHT22;39986;50.770;0.266;2023-06-26T03:07:58;16.50;99.90
54082;DHT22;39986;50.770;0.266;2023-06-26T03:10:23;16.50;99.90
54082;DHT22;39986;50.770;0.266;2023-06-26T03:12:49;16.50;99.90
54082;DHT22;39986;50.770;0.266;2023-06-26T03:15:15;16.30;99.90
54082;DHT22;39986;50.770;0.266;2023-06-26T03:17:40;16.40;99.90
54082;DHT22;39986;50.770;0.266;2023-06-26T03:20:06;16.40;99.90
54082;DHT22;39986;50.770;0.266;2023-06-26T03:22:32;16.40;99.90
54082;DHT22;39986;50.770;0.266;2023-06-26T03:24:58;16.30;99.90
54082;DHT22;39986;50.770;0.266;2023-06-26T03:27:24;16.40;99.90
54082;DHT22;39986;50.770;0.266;2023-06-26T03:29:53;16.40;99.90
54082;DHT22;39986;50.770;0.266;2023-06-26T03:32:19;16.30;99.90
54082;DHT22;39986;50.770;0.266;2023-06-26T03:34:44;16.30;99.90
54082;DHT22;39986;50.770;0.266;2023-06-26T03:37:10;16.30;99.90
54082;DHT22;39986;50.770;0.266;2023-06-26T03:39:36;16.30;99.90
54082;DHT22;39986;50.770;0.266;2023-06-26T03:42:01;16.30;99.90
54082;DHT22;39986;50.770;0.266;2023-06-26T03:44:27;16.30;99.90
54082;DHT22;39986;50.770;0.266;2023-06-26T03:46:53;16.30;99.90
54082;DHT22;39986;50.770;0.266;2023-06-26T03:49:18;16.20;99.90
54082;DHT22;39986;50.770;0.266;2023-06-26T03:51:44;16.20;99.90
54082;DHT22;39986;50.770;0.266;2023-06-26T03:54:10;16.30;99.90
54082;DHT22;39986;50.770;0.266;2023-06-26T03:56:36;16.20;99.90
54082;DHT22;39986;50.770;0.266;2023-06-26T03:59:01;16.20;99.90
54082;DHT22;39986;50.770;0.266;2023-06-26T04:01:27;16.20;99.90
54082;DHT22;39986;50.770;0.266;2023-06-26T04:03:53;16.20;99.90
54082;DHT22;39986;50.770;0.266;2023-06-26T04:06:18;16.20;99.90
54082;DHT22;39986;50.770;0.266;2023-06-26T04:08:44;16.20;99.90
54082;DHT22;39986;50.770;0.266;2023-06-26T04:11:09;16.20;99.90
54082;DHT22;39986;50.770;0.266;2023-06-26T04:13:35;16.20;99.90
54082;DHT22;39986;50.770;0.266;2023-06-26T04:16:01;16.30;99.90
54082;DHT22;39986;50.770;0.266;2023-06-26T04:18:26;16.30;99.90
54082;DHT22;39986;50.770;0.266;2023-06-26T04:23:33;16.30;99.90
54082;DHT22;39986;50.770;0.266;2023-06-26T04:25:59;16.40;99.90
54082;DHT22;39986;50.770;0.266;2023-06-26T04:28:25;16.40;99.90
54082;DHT22;39986;50.770;0.266;2023-06-26T04:30:50;16.40;99.90
54082;DHT22;39986;50.770;0.266;2023-06-26T04:33:16;16.40;99.90
54082;DHT22;39986;50.770;0.266;2023-06-26T04:35:41;16.50;99.90
54082;DHT22;39986;50.770;0.266;2023-06-26T04:38:10;16.50;99.90
54082;DHT22;39986;50.770;0.266;2023-06-26T04:40:35;16.50;99.90
54082;DHT22;39986;50.770;0.266;2023-06-26T04:43:01;16.50;99.90
54082;DHT22;39986;50.770;0.266;2023-06-26T04:45:26;16.60;99.90
54082;DHT22;39986;50.770;0.266;2023-06-26T04:47:52;16.60;99.90
54082;DHT22;39986;50.770;0.266;2023-06-26T04:50:17;16.60;99.90
54082;DHT22;39986;50.770;0.266;2023-06-26T04:52:44;16.70;99.90
54082;DHT22;39986;50.770;0.266;2023-06-26T04:55:09;16.70;99.90
54082;DHT22;39986;50.770;0.266;2023-06-26T04:57:35;16.80;99.90
54082;DHT22;39986;50.770;0.266;2023-06-26T05:00:01;16.80;99.90
54082;DHT22;39986;50.770;0.266;2023-06-26T05:02:26;16.90;99.90
54082;DHT22;39986;50.770;0.266;2023-06-26T05:04:52;16.90;99.90
54082;DHT22;39986;50.770;0.266;2023-06-26T05:07:17;16.90;99.90
54082;DHT22;39986;50.770;0.266;2023-06-26T05:09:43;17.00;99.90
54082;DHT22;39986;50.770;0.266;2023-06-26T05:12:08;17.00;99.90
54082;DHT22;39986;50.770;0.266;2023-06-26T05:14:34;17.10;99.90
54082;DHT22;39986;50.770;0.266;2023-06-26T05:16:59;17.10;99.90
54082;DHT22;39986;50.770;0.266;2023-06-26T05:19:25;17.20;99.90
54082;DHT22;39986;50.770;0.266;2023-06-26T05:21:50;17.30;99.90
54082;DHT22;39986;50.770;0.266;2023-06-26T05:24:17;17.30;99.90
54082;DHT22;39986;50.770;0.266;2023-06-26T05:26:44;17.30;99.90
54082;DHT22;39986;50.770;0.266;2023-06-26T05:29:10;17.50;99.90
54082;DHT22;39986;50.770;0.266;2023-06-26T05:31:35;17.60;99.90
54082;DHT22;39986;50.770;0.266;2023-06-26T05:34:03;17.70;99.90
54082;DHT22;39986;50.770;0.266;2023-06-26T05:36:29;17.80;99.90
54082;DHT22;39986;50.770;0.266;2023-06-26T05:38:56;17.80;99.90
54082;DHT22;39986;50.770;0.266;2023-06-26T05:41:22;17.90;99.90
54082;DHT22;39986;50.770;0.266;2023-06-26T05:43:48;17.90;99.90
54082;DHT22;39986;50.770;0.266;2023-06-26T05:46:13;18.00;99.90
54082;DHT22;39986;50.770;0.266;2023-06-26T05:48:39;18.00;99.90
54082;DHT22;39986;50.770;0.266;2023-06-26T05:51:04;18.10;99.90
54082;DHT22;39986;50.770;0.266;2023-06-26T05:53:30;18.10;99.90
54082;DHT22;39986;50.770;0.266;2023-06-26T05:55:56;18.20;99.90
54082;DHT22;39986;50.770;0.266;2023-06-26T05:58:22;18.30;99.90
54082;DHT22;39986;50.770;0.266;2023-06-26T06:00:49;18.30;99.90
54082;DHT22;39986;50.770;0.266;2023-06-26T06:03:14;18.30;99.90
54082;DHT22;39986;50.770;0.266;2023-06-26T06:05:40;18.40;99.90
54082;DHT22;39986;50.770;0.266;2023-06-26T06:08:05;18.40;99.90
54082;DHT22;39986;50.770;0.266;2023-06-26T06:10:31;18.50;99.90
54082;DHT22;39986;50.770;0.266;2023-06-26T06:12:56;18.60;99.90
54082;DHT22;39986;50.770;0.266;2023-06-26T06:15:22;18.70;99.90
54082;DHT22;39986;50.770;0.266;2023-06-26T06:17:47;18.70;99.90
54082;DHT22;39986;50.770;0.266;2023-06-26T06:20:13;18.80;99.90
54082;DHT22;39986;50.770;0.266;2023-06-26T06:22:38;18.90;99.90
54082;DHT22;39986;50.770;0.266;2023-06-26T06:25:04;18.90;99.90
54082;DHT22;39986;50.770;0.266;2023-06-26T06:27:30;18.90;99.90
54082;DHT22;39986;50.770;0.266;2023-06-26T06:29:56;19.00;99.90
54082;DHT22;39986;50.770;0.266;2023-06-26T06:32:22;19.10;99.90
54082;DHT22;39986;50.770;0.266;2023-06-26T06:34:47;19.10;99.90
54082;DHT22;39986;50.770;0.266;2023-06-26T06:37:13;19.10;99.90
54082;DHT22;39986;50.770;0.266;2023-06-26T06:39:38;19.10;99.90
54082;DHT22;39986;50.770;0.266;2023-06-26T06:42:04;19.20;99.90
54082;DHT22;39986;50.770;0.266;2023-06-26T06:44:30;19.10;99.90
54082;DHT22;39986;50.770;0.266;2023-06-26T06:46:58;19.10;99.90
54082;DHT22;39986;50.770;0.266;2023-06-26T06:49:23;19.20;99.90
54082;DHT22;39986;50.770;0.266;2023-06-26T06:51:49;19.20;99.90
54082;DHT22;39986;50.770;0.266;2023-06-26T06:54:15;19.30;99.90
54082;DHT22;39986;50.770;0.266;2023-06-26T06:56:41;19.40;99.90
54082;DHT22;39986;50.770;0.266;2023-06-26T06:59:06;19.50;99.90
54082;DHT22;39986;50.770;0.266;2023-06-26T07:01:32;19.50;99.90
54082;DHT22;39986;50.770;0.266;2023-06-26T07:03:57;19.60;99.90
54082;DHT22;39986;50.770;0.266;2023-06-26T07:06:23;19.50;99.90
54082;DHT22;39986;50.770;0.266;2023-06-26T07:08:48;19.60;99.90
54082;DHT22;39986;50.770;0.266;2023-06-26T07:11:15;19.70;99.90
54082;DHT22;39986;50.770;0.266;2023-06-26T07:13:40;19.80;99.90
54082;DHT22;39986;50.770;0.266;2023-06-26T07:16:15;19.90;99.90
54082;DHT22;39986;50.770;0.266;2023-06-26T07:18:41;20.00;99.90
54082;DHT22;39986;50.770;0.266;2023-06-26T07:21:07;20.10;99.90
54082;DHT22;39986;50.770;0.266;2023-06-26T07:23:32;20.10;99.90
54082;DHT22;39986;50.770;0.266;2023-06-26T07:25:58;20.30;99.90
54082;DHT22;39986;50.770;0.266;2023-06-26T07:28:24;20.30;99.90
54082;DHT22;39986;50.770;0.266;2023-06-26T07:30:50;20.30;99.90
54082;DHT22;39986;50.770;0.266;2023-06-26T07:33:15;20.30;99.90
54082;DHT22;39986;50.770;0.266;2023-06-26T07:35:41;20.30;99.90
54082;DHT22;39986;50.770;0.266;2023-06-26T07:38:06;20.30;99.90
54082;DHT22;39986;50.770;0.266;2023-06-26T07:40:32;20.30;99.90
54082;DHT22;39986;50.770;0.266;2023-06-26T07:42:57;20.40;99.90
54082;DHT22;39986;50.770;0.266;2023-06-26T07:45:23;20.50;99.90
54082;DHT22;39986;50.770;0.266;2023-06-26T07:47:49;20.60;99.90
54082;DHT22;39986;50.770;0.266;2023-06-26T07:50:14;20.80;99.90
54082;DHT22;39986;50.770;0.266;2023-06-26T07:52:46;20.90;99.90
54082;DHT22;39986;50.770;0.266;2023-06-26T07:55:12;21.00;99.90
54082;DHT22;39986;50.770;0.266;2023-06-26T07:57:37;21.10;99.90
54082;DHT22;39986;50.770;0.266;2023-06-26T08:00:03;21.00;99.90
54082;DHT22;39986;50.770;0.266;2023-06-26T08:02:32;21.00;99.90
54082;DHT22;39986;50.770;0.266;2023-06-26T08:04:57;21.00;99.90
54082;DHT22;39986;50.770;0.266;2023-06-26T08:07:23;21.00;99.90
54082;DHT22;39986;50.770;0.266;2023-06-26T08:09:48;21.00;99.90
54082;DHT22;39986;50.770;0.266;2023-06-26T08:12:14;20.90;99.90
54082;DHT22;39986;50.770;0.266;2023-06-26T08:14:39;21.00;99.90
54082;DHT22;39986;50.770;0.266;2023-06-26T08:17:05;21.00;99.90
54082;DHT22;39986;50.770;0.266;2023-06-26T08:19:30;21.10;99.90
54082;DHT22;39986;50.770;0.266;2023-06-26T08:21:56;21.10;99.90
54082;DHT22;39986;50.770;0.266;2023-06-26T08:24:21;21.00;99.90
54082;DHT22;39986;50.770;0.266;2023-06-26T08:26:47;21.10;99.90
54082;DHT22;39986;50.770;0.266;2023-06-26T08:29:13;21.20;99.90
54082;DHT22;39986;50.770;0.266;2023-06-26T08:31:39;21.20;99.90
54082;DHT22;39986;50.770;0.266;2023-06-26T08:34:05;21.30;99.90
54082;DHT22;39986;50.770;0.266;2023-06-26T08:36:31;21.50;99.90
54082;DHT22;39986;50.770;0.266;2023-06-26T08:38:57;21.60;99.90
54082;DHT22;39986;50.770;0.266;2023-06-26T08:41:22;21.80;99.90
54082;DHT22;39986;50.770;0.266;2023-06-26T08:43:48;22.00;99.90
54082;DHT22;39986;50.770;0.266;2023-06-26T08:46:16;22.10;99.90
54082;DHT22;39986;50.770;0.266;2023-06-26T08:48:42;22.10;99.90
54082;DHT22;39986;50.770;0.266;2023-06-26T08:51:11;22.10;99.90
54082;DHT22;39986;50.770;0.266;2023-06-26T08:53:43;22.10;99.90
54082;DHT22;39986;50.770;0.266;2023-06-26T08:56:12;22.00;99.90
54082;DHT22;39986;50.770;0.266;2023-06-26T08:58:39;22.00;99.90
54082;DHT22;39986;50.770;0.266;2023-06-26T09:01:06;22.10;99.90
54082;DHT22;39986;50.770;0.266;2023-06-26T09:03:32;22.20;99.90
54082;DHT22;39986;50.770;0.266;2023-06-26T09:05:58;22.30;99.90
54082;DHT22;39986;50.770;0.266;2023-06-26T09:08:23;22.30;99.90
54082;DHT22;39986;50.770;0.266;2023-06-26T09:10:49;22.40;99.90
54082;DHT22;39986;50.770;0.266;2023-06-26T09:13:14;22.50;99.90
54082;DHT22;39986;50.770;0.266;2023-06-26T09:15:43;22.40;99.90
54082;DHT22;39986;50.770;0.266;2023-06-26T09:18:09;22.40;99.90
54082;DHT22;39986;50.770;0.266;2023-06-26T09:20:35;22.50;99.90
54082;DHT22;39986;50.770;0.266;2023-06-26T09:23:00;22.70;99.90
54082;DHT22;39986;50.770;0.266;2023-06-26T09:25:27;22.60;99.90
54082;DHT22;39986;50.770;0.266;2023-06-26T09:27:53;22.50;99.90
54082;DHT22;39986;50.770;0.266;2023-06-26T09:30:19;22.50;99.90
54082;DHT22;39986;50.770;0.266;2023-06-26T09:32:45;22.30;99.90
54082;DHT22;39986;50.770;0.266;2023-06-26T09:35:11;22.10;99.90
54082;DHT22;39986;50.770;0.266;2023-06-26T09:37:36;22.10;99.90
54082;DHT22;39986;50.770;0.266;2023-06-26T09:40:02;22.10;99.90
54082;DHT22;39986;50.770;0.266;2023-06-26T09:42:29;22.10;99.90
54082;DHT22;39986;50.770;0.266;2023-06-26T09:44:54;22.30;99.90
54082;DHT22;39986;50.770;0.266;2023-06-26T09:47:20;22.70;99.90
54082;DHT22;39986;50.770;0.266;2023-06-26T09:49:46;22.50;99.90
54082;DHT22;39986;50.770;0.266;2023-06-26T09:52:15;22.30;99.90
54082;DHT22;39986;50.770;0.266;2023-06-26T09:54:44;22.10;99.90
54082;DHT22;39986;50.770;0.266;2023-06-26T09:57:14;22.30;99.90
54082;DHT22;39986;50.770;0.266;2023-06-26T09:59:41;22.50;99.90
54082;DHT22;39986;50.770;0.266;2023-06-26T10:02:07;22.70;99.90
54082;DHT22;39986;50.770;0.266;2023-06-26T10:04:33;22.60;99.90
54082;DHT22;39986;50.770;0.266;2023-06-26T10:06:59;22.60;99.90
54082;DHT22;39986;50.770;0.266;2023-06-26T10:09:26;22.50;99.90
54082;DHT22;39986;50.770;0.266;2023-06-26T10:14:18;22.30;99.90
54082;DHT22;39986;50.770;0.266;2023-06-26T10:16:44;22.20;99.90
54082;DHT22;39986;50.770;0.266;2023-06-26T10:19:11;22.30;99.90
54082;DHT22;39986;50.770;0.266;2023-06-26T10:21:38;22.50;99.90
54082;DHT22;39986;50.770;0.266;2023-06-26T10:24:07;22.80;99.90
54082;DHT22;39986;50.770;0.266;2023-06-26T10:26:35;23.10;99.90
54082;DHT22;39986;50.770;0.266;2023-06-26T10:29:02;23.30;99.90
54082;DHT22;39986;50.770;0.266;2023-06-26T10:31:28;23.30;99.90
54082;DHT22;39986;50.770;0.266;2023-06-26T10:33:54;22.70;99.90
54082;DHT22;39986;50.770;0.266;2023-06-26T10:36:20;22.60;99.90
54082;DHT22;39986;50.770;0.266;2023-06-26T10:38:55;23.00;99.90
54082;DHT22;39986;50.770;0.266;2023-06-26T10:41:24;23.50;99.90
54082;DHT22;39986;50.770;0.266;2023-06-26T10:46:28;23.80;99.90
54082;DHT22;39986;50.770;0.266;2023-06-26T10:48:55;24.00;99.90
54082;DHT22;39986;50.770;0.266;2023-06-26T10:51:21;23.70;99.90
54082;DHT22;39986;50.770;0.266;2023-06-26T10:53:53;23.70;99.90
54082;DHT22;39986;50.770;0.266;2023-06-26T10:56:19;23.80;99.90
54082;DHT22;39986;50.770;0.266;2023-06-26T10:58:44;23.90;99.90
54082;DHT22;39986;50.770;0.266;2023-06-26T11:03:40;24.10;99.90
54082;DHT22;39986;50.770;0.266;2023-06-26T11:06:11;24.40;99.90
54082;DHT22;39986;50.770;0.266;2023-06-26T11:08:44;24.70;99.90
54082;DHT22;39986;50.770;0.266;2023-06-26T11:11:09;25.60;99.90
54082;DHT22;39986;50.770;0.266;2023-06-26T11:13:35;26.30;99.90
54082;DHT22;39986;50.770;0.266;2023-06-26T11:16:01;27.10;99.90
54082;DHT22;39986;50.770;0.266;2023-06-26T11:18:27;27.60;99.90
54082;DHT22;39986;50.770;0.266;2023-06-26T11:20:53;27.80;99.90
54082;DHT22;39986;50.770;0.266;2023-06-26T11:23:19;28.00;99.90
54082;DHT22;39986;50.770;0.266;2023-06-26T11:25:47;27.90;99.90
54082;DHT22;39986;50.770;0.266;2023-06-26T11:28:12;28.10;99.90
54082;DHT22;39986;50.770;0.266;2023-06-26T11:30:38;28.80;99.90
54082;DHT22;39986;50.770;0.266;2023-06-26T11:33:07;29.70;99.90
54082;DHT22;39986;50.770;0.266;2023-06-26T11:35:33;29.80;99.90
54082;DHT22;39986;50.770;0.266;2023-06-26T11:37:59;30.00;99.90
54082;DHT22;39986;50.770;0.266;2023-06-26T11:40:26;30.00;99.90
54082;DHT22;39986;50.770;0.266;2023-06-26T11:43:00;30.00;99.90
54082;DHT22;39986;50.770;0.266;2023-06-26T11:45:27;30.30;99.90
54082;DHT22;39986;50.770;0.266;2023-06-26T11:47:54;30.40;99.90
54082;DHT22;39986;50.770;0.266;2023-06-26T11:50:20;30.30;99.90
54082;DHT22;39986;50.770;0.266;2023-06-26T11:52:45;29.70;99.90
54082;DHT22;39986;50.770;0.266;2023-06-26T11:55:17;29.80;99.90
54082;DHT22;39986;50.770;0.266;2023-06-26T11:57:47;28.90;99.90
54082;DHT22;39986;50.770;0.266;2023-06-26T12:00:14;28.80;99.90
54082;DHT22;39986;50.770;0.266;2023-06-26T12:02:40;28.80;99.90
54082;DHT22;39986;50.770;0.266;2023-06-26T12:05:06;29.60;99.90
54082;DHT22;39986;50.770;0.266;2023-06-26T12:07:31;30.50;99.90
54082;DHT22;39986;50.770;0.266;2023-06-26T12:09:57;31.90;99.10
54082;DHT22;39986;50.770;0.266;2023-06-26T12:12:23;31.90;98.50
54082;DHT22;39986;50.770;0.266;2023-06-26T12:14:50;31.70;98.10
54082;DHT22;39986;50.770;0.266;2023-06-26T12:17:16;32.20;95.90
54082;DHT22;39986;50.770;0.266;2023-06-26T12:19:45;32.50;96.60
54082;DHT22;39986;50.770;0.266;2023-06-26T12:22:13;32.10;97.00
54082;DHT22;39986;50.770;0.266;2023-06-26T12:24:39;31.60;97.90
54082;DHT22;39986;50.770;0.266;2023-06-26T12:27:08;32.00;97.20
54082;DHT22;39986;50.770;0.266;2023-06-26T12:29:34;32.10;96.80
54082;DHT22;39986;50.770;0.266;2023-06-26T12:32:00;32.70;96.00
54082;DHT22;39986;50.770;0.266;2023-06-26T12:34:36;33.40;93.90
54082;DHT22;39986;50.770;0.266;2023-06-26T12:37:05;33.60;94.00
54082;DHT22;39986;50.770;0.266;2023-06-26T12:42:16;33.60;92.80
54082;DHT22;39986;50.770;0.266;2023-06-26T12:44:42;33.40;92.70
54082;DHT22;39986;50.770;0.266;2023-06-26T12:47:08;33.10;94.00
54082;DHT22;39986;50.770;0.266;2023-06-26T12:51:59;33.00;93.10
54082;DHT22;39986;50.770;0.266;2023-06-26T12:54:26;32.00;94.80
54082;DHT22;39986;50.770;0.266;2023-06-26T12:56:52;31.60;96.90
54082;DHT22;39986;50.770;0.266;2023-06-26T12:59:17;31.60;96.40
54082;DHT22;39986;50.770;0.266;2023-06-26T13:01:43;32.30;95.90
54082;DHT22;39986;50.770;0.266;2023-06-26T13:04:09;32.70;94.80
54082;DHT22;39986;50.770;0.266;2023-06-26T13:06:35;32.90;95.80
54082;DHT22;39986;50.770;0.266;2023-06-26T13:09:01;32.90;95.80
54082;DHT22;39986;50.770;0.266;2023-06-26T13:11:30;32.90;95.10
54082;DHT22;39986;50.770;0.266;2023-06-26T13:13:55;32.40;95.20
54082;DHT22;39986;50.770;0.266;2023-06-26T13:16:21;31.70;96.20
54082;DHT22;39986;50.770;0.266;2023-06-26T13:18:47;31.80;96.90
54082;DHT22;39986;50.770;0.266;2023-06-26T13:21:12;31.80;96.80
54082;DHT22;39986;50.770;0.266;2023-06-26T13:23:38;32.40;95.80
54082;DHT22;39986;50.770;0.266;2023-06-26T13:26:04;33.00;94.60
54082;DHT22;39986;50.770;0.266;2023-06-26T13:28:30;32.00;95.10
54082;DHT22;39986;50.770;0.266;2023-06-26T13:30:55;30.60;97.50
54082;DHT22;39986;50.770;0.266;2023-06-26T13:33:21;30.50;97.90
54082;DHT22;39986;50.770;0.266;2023-06-26T13:35:47;31.10;98.10
54082;DHT22;39986;50.770;0.266;2023-06-26T13:38:12;31.50;96.50
54082;DHT22;39986;50.770;0.266;2023-06-26T13:40:38;31.10;96.60
54082;DHT22;39986;50.770;0.266;2023-06-26T13:43:03;31.20;97.40
54082;DHT22;39986;50.770;0.266;2023-06-26T13:45:29;31.80;95.70
54082;DHT22;39986;50.770;0.266;2023-06-26T13:47:54;31.90;94.60
54082;DHT22;39986;50.770;0.266;2023-06-26T13:50:20;32.40;94.80
54082;DHT22;39986;50.770;0.266;2023-06-26T13:52:45;31.30;96.60
54082;DHT22;39986;50.770;0.266;2023-06-26T13:55:11;31.40;97.10
54082;DHT22;39986;50.770;0.266;2023-06-26T13:57:36;32.50;95.90
54082;DHT22;39986;50.770;0.266;2023-06-26T14:00:08;32.50;95.50
54082;DHT22;39986;50.770;0.266;2023-06-26T14:02:34;32.30;95.10
54082;DHT22;39986;50.770;0.266;2023-06-26T14:05:00;31.20;96.20
54082;DHT22;39986;50.770;0.266;2023-06-26T14:07:25;30.50;95.70
54082;DHT22;39986;50.770;0.266;2023-06-26T14:09:53;29.50;98.10
54082;DHT22;39986;50.770;0.266;2023-06-26T14:12:19;28.30;99.90
54082;DHT22;39986;50.770;0.266;2023-06-26T14:14:45;27.70;99.90
54082;DHT22;39986;50.770;0.266;2023-06-26T14:17:10;26.80;99.90
54082;DHT22;39986;50.770;0.266;2023-06-26T14:19:41;26.40;99.90
54082;DHT22;39986;50.770;0.266;2023-06-26T14:22:07;26.10;99.90
54082;DHT22;39986;50.770;0.266;2023-06-26T14:24:32;26.50;99.90
54082;DHT22;39986;50.770;0.266;2023-06-26T14:26:58;27.00;99.90
54082;DHT22;39986;50.770;0.266;2023-06-26T14:29:23;27.20;99.90
54082;DHT22;39986;50.770;0.266;2023-06-26T14:31:49;27.70;99.90
54082;DHT22;39986;50.770;0.266;2023-06-26T14:34:14;28.10;99.90
54082;DHT22;39986;50.770;0.266;2023-06-26T14:36:40;28.30;99.90
54082;DHT22;39986;50.770;0.266;2023-06-26T14:39:05;28.50;99.90
54082;DHT22;39986;50.770;0.266;2023-06-26T14:41:31;28.60;99.90
54082;DHT22;39986;50.770;0.266;2023-06-26T14:43:56;28.60;99.90
54082;DHT22;39986;50.770;0.266;2023-06-26T14:46:22;28.40;99.90
54082;DHT22;39986;50.770;0.266;2023-06-26T14:48:48;27.60;99.90
54082;DHT22;39986;50.770;0.266;2023-06-26T14:51:13;26.60;99.90
54082;DHT22;39986;50.770;0.266;2023-06-26T14:53:39;25.90;99.90
54082;DHT22;39986;50.770;0.266;2023-06-26T14:56:04;25.60;99.90
54082;DHT22;39986;50.770;0.266;2023-06-26T14:58:31;25.30;99.90
54082;DHT22;39986;50.770;0.266;2023-06-26T15:00:56;24.80;99.90
54082;DHT22;39986;50.770;0.266;2023-06-26T15:03:22;24.70;99.90
54082;DHT22;39986;50.770;0.266;2023-06-26T15:05:48;24.70;99.90
54082;DHT22;39986;50.770;0.266;2023-06-26T15:08:14;24.70;99.90
54082;DHT22;39986;50.770;0.266;2023-06-26T15:10:39;24.70;99.90
54082;DHT22;39986;50.770;0.266;2023-06-26T15:13:05;24.60;99.90
54082;DHT22;39986;50.770;0.266;2023-06-26T15:15:31;24.30;99.90
54082;DHT22;39986;50.770;0.266;2023-06-26T15:17:57;24.10;99.90
54082;DHT22;39986;50.770;0.266;2023-06-26T15:20:22;24.10;99.90
54082;DHT22;39986;50.770;0.266;2023-06-26T15:22:48;24.00;99.90
54082;DHT22;39986;50.770;0.266;2023-06-26T15:25:13;24.00;99.90
54082;DHT22;39986;50.770;0.266;2023-06-26T15:27:39;24.00;99.90
54082;DHT22;39986;50.770;0.266;2023-06-26T15:30:04;24.00;99.90
54082;DHT22;39986;50.770;0.266;2023-06-26T15:32:31;24.00;99.90
54082;DHT22;39986;50.770;0.266;2023-06-26T15:34:56;23.90;99.90
54082;DHT22;39986;50.770;0.266;2023-06-26T15:37:22;23.70;99.90
54082;DHT22;39986;50.770;0.266;2023-06-26T15:39:47;23.50;99.90
54082;DHT22;39986;50.770;0.266;2023-06-26T15:42:13;23.50;99.90
54082;DHT22;39986;50.770;0.266;2023-06-26T15:44:38;23.40;99.90